Detall de PIREP

Printer-friendly versionPDF version

[2014/10/07 10:43:00]
Flight IATA:CT3229
Pilot Number:042
Company ICAO:CAT
Aircraft Type:A320/E
PAX:93
Departing Airport: LMML
Destination Airport: LEPA
Alternate Airport:LEBL
Online: VATSIM
Route:GZO UM978 MORJA UA411 ANB UM134 GENIO UN859 OSGAL
Flight Level:F340
No Slew and time accel
No pause
Crash detect
Detect pilot in Cockpit between each 30 and 45 minutes
10:43 Zero fuel Weight: 124282 Lbs, Fuel Weight: 42167 Lbs
10:43 VATSIM:LMML 070815Z 33011KT 9999 FEW020TCU 25/16 Q1019 TEMPO 8000 TSRA BKN015CB
10:43 VATSIM:LEPA 070830Z 23009KT 9999 SCT016 25/25 Q1013 NOSIG
10:47 Parking Brakes off
10:51 Take-off
10:51 Take off Weight: 165352 Lbs
10:51 Wind: 330º @ 011 Knots Heading: 315º
10:51 POS N35º 51´ 04´´ E014º 29´ 04´´
10:51 Gear Up: 157 Knots
10:51 Flaps:3 at 157 Knots
10:52 Flaps:2 at 164 Knots
10:53 Flaps:1 at 209 Knots
10:53 Flaps:0 at 211 Knots
11:06 Wind:344º@042 Knots Heading: 289º Ground Speed: 432 Knots Altitude 28444 ft
11:11 TOC
11:11 Fuel Weight: 37277 Lb
11:21 Wind:343º@044 Knots Heading: 287º Ground Speed: 428 Knots Altitude 34137 ft
11:36 Wind:337º@039 Knots Heading: 274º Ground Speed: 434 Knots Altitude 34087 ft
11:51 Wind:316º@037 Knots Heading: 293º Ground Speed: 418 Knots Altitude 34071 ft
12:06 Wind:307º@030 Knots Heading: 293º Ground Speed: 422 Knots Altitude 34055 ft
12:11 TOD
12:11 Fuel Weight: 32046 Lb
12:21 Wind:253º@019 Knots Heading: 341º Ground Speed: 337 Knots Altitude 17001 ft
12:32 Flaps:1 at 214 Knots
12:33 Gear Down: 182 Knots
12:33 Flaps:3 at 182 Knots
12:33 Flaps:4 at 182 Knots
12:36 Wind:226º@010 Knots Heading: 237º Ground Speed: 150 Knots Altitude 734 ft
12:36 TouchDown:Rate -322 ft/min Speed: 151 Knots
12:37 VATSIM:LEPA 071030Z 23010KT 180V280 9999 SCT016 26/22 Q1013 NOSIG
12:37 Land
12:37 Wind:233º@009 Knots
12:37 Heading: 238º
12:37 Flight Duration: 01:46
12:37 Landing Weight: 155246 Lbs
12:37 POS N39º 32´ 52´´ E002º 44´ 45´´
12:39 Parking brakes on
12:39 Block to Block Duration: 01:52
12:39 Final Fuel: 30663 Lbls
12:39 Spent Fuel: 11503 Lbls
12:39 Flight Length: 674 NM
12:39 TOD Land Length: 126 NM

Exportar CSV

Powered by Drupal - Modified by Danger4k